Time;durP1;ratioP1;P1;durP2;ratioP2;P2;SDS_P1;SDS_P2;PMS_P1;PMS_P2;Temp;Humidity;BMP_temperature;BMP_pressure;BME280_temperature;BME280_humidity;BME280_pressure;Samples;Min_cycle;Max_cycle;Signal;HPM_P1;HPM_P2
2023/07/23 00:00:31;;;;;;;9.52;3.75;;;15.20;99.90;;;;;;4987070;28;20122;-71
2023/07/23 00:02:56;;;;;;;12.32;4.20;;;15.20;99.90;;;;;;5012054;28;20042;-71
2023/07/23 00:05:25;;;;;;;10.30;3.92;;;15.20;99.90;;;;;;5024536;28;20057;-71
2023/07/23 00:07:54;;;;;;;10.50;4.10;;;15.20;99.90;;;;;;5024551;28;20148;-70
2023/07/23 00:10:20;;;;;;;7.18;3.65;;;15.20;99.90;;;;;;5025964;28;20049;-71
2023/07/23 00:12:45;;;;;;;8.98;3.47;;;15.20;99.90;;;;;;5025723;28;20106;-71
2023/07/23 00:15:12;;;;;;;9.07;4.35;;;15.20;99.90;;;;;;5025384;28;20116;-70
2023/07/23 00:17:39;;;;;;;10.35;4.10;;;15.20;99.90;;;;;;5025846;28;20041;-70
2023/07/23 00:20:09;;;;;;;10.05;3.50;;;15.20;99.90;;;;;;5024921;28;20128;-71
2023/07/23 00:22:36;;;;;;;12.65;4.30;;;15.20;99.90;;;;;;5007611;28;20049;-71
2023/07/23 00:25:02;;;;;;;9.55;3.80;;;15.20;99.90;;;;;;5025651;28;20048;-71
2023/07/23 00:27:27;;;;;;;11.32;4.35;;;15.20;99.90;;;;;;5026033;28;20049;-71
2023/07/23 00:29:53;;;;;;;9.43;4.90;;;15.20;99.90;;;;;;5025561;28;20072;-70
2023/07/23 00:32:19;;;;;;;8.57;3.42;;;15.20;99.90;;;;;;5025253;28;20122;-70
2023/07/23 00:34:44;;;;;;;7.38;3.63;;;15.20;99.90;;;;;;5023455;28;20050;-70
2023/07/23 00:37:10;;;;;;;9.35;4.22;;;15.20;99.90;;;;;;5023779;28;20053;-71
2023/07/23 00:39:35;;;;;;;12.23;4.05;;;15.20;99.90;;;;;;5024416;28;20065;-71
2023/07/23 00:42:01;;;;;;;6.43;3.50;;;15.20;99.90;;;;;;5025070;28;20080;-70
2023/07/23 00:44:27;;;;;;;11.60;4.20;;;15.20;99.90;;;;;;5013485;28;20042;-70
2023/07/23 00:46:54;;;;;;;10.65;4.50;;;15.20;99.90;;;;;;5011883;28;20804;-71
2023/07/23 00:49:20;;;;;;;8.70;3.83;;;15.20;99.90;;;;;;5007596;28;20909;-70
2023/07/23 00:51:46;;;;;;;9.25;4.10;;;15.20;99.90;;;;;;4987479;28;20050;-71
2023/07/23 00:54:13;;;;;;;8.55;3.63;;;15.20;99.90;;;;;;5000926;28;20054;-70
2023/07/23 00:56:40;;;;;;;10.32;4.18;;;15.20;99.90;;;;;;5010433;28;20084;-72
2023/07/23 00:59:07;;;;;;;7.50;3.58;;;15.20;99.90;;;;;;5019413;28;20038;-71
2023/07/23 01:01:33;;;;;;;6.35;3.50;;;15.20;99.90;;;;;;5014267;28;20046;-69
2023/07/23 01:03:58;;;;;;;6.63;2.78;;;15.20;99.90;;;;;;5008645;28;20046;-71
2023/07/23 01:06:26;;;;;;;8.40;3.97;;;15.10;99.90;;;;;;5005154;28;20050;-71
2023/07/23 01:08:55;;;;;;;8.23;3.40;;;15.20;99.90;;;;;;5017500;28;20067;-71
2023/07/23 01:11:22;;;;;;;7.05;3.33;;;15.20;99.90;;;;;;5096593;23;20132;-72
2023/07/23 01:13:51;;;;;;;7.45;3.55;;;15.20;99.90;;;;;;5043927;28;20037;-72
2023/07/23 01:16:17;;;;;;;8.88;3.70;;;15.10;99.90;;;;;;5032210;28;20115;-72
2023/07/23 01:18:43;;;;;;;8.63;3.92;;;15.10;99.90;;;;;;5039796;28;20099;-73
2023/07/23 01:21:10;;;;;;;8.90;3.53;;;15.20;99.90;;;;;;5039507;28;20490;-73
2023/07/23 01:23:36;;;;;;;7.85;3.38;;;15.20;99.90;;;;;;5027240;28;20049;-72
2023/07/23 01:26:07;;;;;;;12.13;4.18;;;15.10;99.90;;;;;;5024547;28;20042;-72
2023/07/23 01:28:33;;;;;;;9.48;3.55;;;15.10;99.90;;;;;;5024184;28;20053;-73
2023/07/23 01:30:58;;;;;;;6.72;3.60;;;15.10;99.90;;;;;;5023656;28;20052;-74
2023/07/23 01:33:25;;;;;;;6.82;3.58;;;15.10;99.90;;;;;;5028005;28;20085;-73
2023/07/23 01:35:54;;;;;;;9.20;4.03;;;15.10;99.90;;;;;;5042497;28;20048;-73
2023/07/23 01:38:20;;;;;;;7.78;3.95;;;15.20;99.90;;;;;;5042957;28;20406;-73
2023/07/23 01:40:46;;;;;;;8.23;3.60;;;15.20;99.90;;;;;;5044534;28;20048;-72
2023/07/23 01:43:12;;;;;;;6.80;3.97;;;15.10;99.90;;;;;;5025564;28;20048;-72
2023/07/23 01:45:44;;;;;;;11.00;3.88;;;15.10;99.90;;;;;;5042643;28;20754;-73
2023/07/23 01:48:13;;;;;;;7.63;3.80;;;15.10;99.90;;;;;;5042440;28;20083;-72
2023/07/23 01:50:39;;;;;;;6.38;3.42;;;15.10;99.90;;;;;;5041430;28;20099;-73
2023/07/23 01:53:06;;;;;;;8.15;3.58;;;15.10;99.90;;;;;;5043644;28;20045;-73
2023/07/23 01:55:32;;;;;;;5.93;3.38;;;15.10;99.90;;;;;;5042242;28;20049;-72
2023/07/23 01:57:57;;;;;;;8.18;3.78;;;15.10;99.90;;;;;;5059412;28;20406;-73
2023/07/23 02:00:23;;;;;;;9.35;3.60;;;15.10;99.90;;;;;;5043438;28;20040;-73
2023/07/23 02:02:49;;;;;;;5.93;3.03;;;15.10;99.90;;;;;;5043508;28;20102;-73
2023/07/23 02:05:15;;;;;;;6.47;3.08;;;15.10;99.90;;;;;;5041115;28;20573;-72
2023/07/23 02:07:40;;;;;;;7.95;3.55;;;15.10;99.90;;;;;;5042088;28;20233;-73
2023/07/23 02:10:10;;;;;;;6.47;3.75;;;15.10;99.90;;;;;;5037343;28;20405;-73
2023/07/23 02:12:36;;;;;;;9.02;4.22;;;15.10;99.90;;;;;;5023711;28;20049;-73
2023/07/23 02:15:03;;;;;;;9.48;4.20;;;15.10;99.90;;;;;;5022096;28;20103;-73
2023/07/23 02:17:28;;;;;;;7.10;3.55;;;15.10;99.90;;;;;;5022280;28;20061;-73
2023/07/23 02:19:54;;;;;;;5.65;2.70;;;15.10;99.90;;;;;;5021506;28;20052;-73
2023/07/23 02:22:20;;;;;;;8.55;3.75;;;15.10;99.90;;;;;;5021287;28;20115;-73
2023/07/23 02:24:45;;;;;;;8.80;3.58;;;15.10;99.90;;;;;;5023552;28;20051;-72
2023/07/23 02:27:12;;;;;;;18.05;5.28;;;15.10;99.90;;;;;;5040413;28;20045;-73
2023/07/23 02:29:38;;;;;;;7.60;4.13;;;15.20;99.90;;;;;;5031908;28;20045;-72
2023/07/23 02:32:05;;;;;;;8.45;3.53;;;15.20;99.90;;;;;;5021706;28;20046;-72
2023/07/23 02:34:31;;;;;;;7.30;3.40;;;15.20;99.90;;;;;;5025412;28;20045;-73
2023/07/23 02:36:56;;;;;;;7.95;3.85;;;15.20;99.90;;;;;;5043206;28;20398;-74
2023/07/23 02:39:22;;;;;;;7.40;3.17;;;15.20;99.90;;;;;;5038141;28;20045;-73
2023/07/23 02:41:48;;;;;;;9.32;4.78;;;15.10;99.90;;;;;;5036102;28;20136;-73
2023/07/23 02:44:13;;;;;;;6.47;3.53;;;15.10;99.90;;;;;;5023890;28;20450;-73
2023/07/23 02:46:39;;;;;;;10.40;3.65;;;15.10;99.90;;;;;;5016870;28;20498;-73
2023/07/23 02:49:05;;;;;;;6.28;3.20;;;15.20;99.90;;;;;;5040669;28;20053;-73
2023/07/23 02:51:30;;;;;;;8.23;4.45;;;15.10;99.90;;;;;;5042795;28;20041;-73
2023/07/23 02:53:56;;;;;;;7.13;3.90;;;15.20;99.90;;;;;;5042010;28;20078;-72
2023/07/23 02:56:22;;;;;;;12.60;4.97;;;15.10;99.90;;;;;;5042560;28;20048;-73
2023/07/23 02:58:48;;;;;;;11.73;3.97;;;15.20;99.90;;;;;;5024607;28;20104;-72
2023/07/23 03:01:13;;;;;;;10.05;4.28;;;15.10;99.90;;;;;;5040872;28;20045;-72
2023/07/23 03:03:39;;;;;;;6.53;3.85;;;15.20;99.90;;;;;;5040329;28;20371;-73
2023/07/23 03:06:08;;;;;;;6.78;3.53;;;15.10;99.90;;;;;;5041182;28;20052;-73
2023/07/23 03:08:35;;;;;;;8.35;3.95;;;15.10;99.90;;;;;;5044169;28;20094;-73
2023/07/23 03:11:01;;;;;;;8.38;3.55;;;15.10;99.90;;;;;;5044482;28;20048;-73
2023/07/23 03:13:26;;;;;;;7.30;3.95;;;15.10;99.90;;;;;;5045791;28;20083;-73
2023/07/23 03:15:52;;;;;;;7.47;3.35;;;15.10;99.90;;;;;;5027769;28;20420;-73
2023/07/23 03:18:17;;;;;;;10.43;4.25;;;15.10;99.90;;;;;;5024540;28;20494;-72
2023/07/23 03:20:43;;;;;;;9.55;3.60;;;15.10;99.90;;;;;;5026975;28;20044;-72
2023/07/23 03:23:09;;;;;;;11.25;3.83;;;15.10;99.90;;;;;;5026058;28;20376;-73
2023/07/23 03:25:35;;;;;;;10.07;4.15;;;15.10;99.90;;;;;;5025374;28;20053;-73
2023/07/23 03:28:01;;;;;;;8.32;3.63;;;15.10;99.90;;;;;;5043856;28;20084;-73
2023/07/23 03:30:27;;;;;;;11.77;3.70;;;15.10;99.90;;;;;;5045938;28;20049;-72
2023/07/23 03:32:53;;;;;;;8.02;3.67;;;15.10;99.90;;;;;;5046355;28;20049;-73
2023/07/23 03:35:20;;;;;;;9.13;4.10;;;15.10;99.90;;;;;;5045203;28;20728;-73
2023/07/23 03:37:45;;;;;;;7.70;4.45;;;15.10;99.90;;;;;;5046578;28;20044;-73
2023/07/23 03:40:11;;;;;;;10.70;4.20;;;15.10;99.90;;;;;;5044860;28;20041;-72
2023/07/23 03:42:37;;;;;;;10.40;4.38;;;15.10;99.90;;;;;;5046322;28;20037;-73
2023/07/23 03:45:04;;;;;;;10.98;4.47;;;15.10;99.90;;;;;;5045822;28;20082;-74
2023/07/23 03:47:29;;;;;;;12.13;5.05;;;15.10;99.90;;;;;;5046487;28;20041;-75
2023/07/23 03:49:55;;;;;;;8.50;3.65;;;15.10;99.90;;;;;;5039807;28;20040;-72
2023/07/23 03:52:22;;;;;;;9.00;3.92;;;15.20;99.90;;;;;;5026577;28;20045;-73
2023/07/23 03:54:48;;;;;;;10.82;4.28;;;15.20;99.90;;;;;;5044591;28;20052;-73
2023/07/23 03:57:14;;;;;;;7.63;3.88;;;15.20;99.90;;;;;;5044697;28;20045;-73
2023/07/23 03:59:42;;;;;;;8.50;4.15;;;15.20;99.90;;;;;;5028214;28;20091;-72
2023/07/23 04:02:09;;;;;;;9.25;3.90;;;15.20;99.90;;;;;;5032275;28;20106;-73
2023/07/23 04:04:36;;;;;;;11.88;4.00;;;15.20;99.90;;;;;;5044913;28;20110;-72
2023/07/23 04:07:02;;;;;;;8.45;3.45;;;15.10;99.90;;;;;;5044893;28;20430;-73
2023/07/23 04:09:27;;;;;;;10.43;4.20;;;15.10;99.90;;;;;;5044850;28;20477;-72
2023/07/23 04:11:53;;;;;;;9.45;4.40;;;15.10;99.90;;;;;;5024988;28;20049;-73
2023/07/23 04:14:19;;;;;;;7.18;3.47;;;15.10;99.90;;;;;;5024128;28;20666;-72
2023/07/23 04:16:45;;;;;;;11.93;4.05;;;15.10;99.90;;;;;;5024816;28;20053;-72
2023/07/23 04:19:11;;;;;;;9.32;4.32;;;15.10;99.90;;;;;;5022920;28;20045;-73
2023/07/23 04:21:36;;;;;;;6.82;3.35;;;15.10;99.90;;;;;;5023890;28;20053;-73
2023/07/23 04:24:02;;;;;;;12.15;4.13;;;15.10;99.90;;;;;;5025306;28;20535;-73
2023/07/23 04:26:29;;;;;;;9.07;3.72;;;15.10;99.90;;;;;;5026119;28;20048;-73
2023/07/23 04:28:55;;;;;;;6.97;3.40;;;15.10;99.90;;;;;;5024466;28;20484;-73
2023/07/23 04:31:20;;;;;;;8.57;4.15;;;15.10;99.90;;;;;;5025208;28;20056;-73
2023/07/23 04:33:46;;;;;;;7.47;3.47;;;15.00;99.90;;;;;;5023311;28;20049;-73
2023/07/23 04:36:14;;;;;;;8.82;4.40;;;15.00;99.90;;;;;;5024341;28;20124;-72
2023/07/23 04:38:40;;;;;;;7.20;3.85;;;15.10;99.90;;;;;;5007319;28;20514;-73
2023/07/23 04:41:07;;;;;;;9.25;3.70;;;15.00;99.90;;;;;;5023803;28;20447;-73
2023/07/23 04:43:34;;;;;;;10.43;3.72;;;15.00;99.90;;;;;;5007233;28;20037;-73
2023/07/23 04:46:00;;;;;;;6.95;3.53;;;15.00;99.90;;;;;;5024272;28;20053;-73
2023/07/23 04:48:25;;;;;;;7.60;3.33;;;15.10;99.90;;;;;;5024742;28;20051;-73
2023/07/23 04:50:59;;;;;;;10.32;4.13;;;15.00;99.90;;;;;;5024786;28;20041;-73
2023/07/23 04:53:25;;;;;;;10.93;3.22;;;15.00;99.90;;;;;;5025081;28;20522;-73
2023/07/23 04:55:52;;;;;;;8.65;3.88;;;15.00;99.90;;;;;;5023650;28;20081;-73
2023/07/23 04:58:18;;;;;;;10.68;4.68;;;15.00;99.90;;;;;;5006671;28;20041;-73
2023/07/23 05:00:44;;;;;;;7.85;3.60;;;15.00;99.90;;;;;;5025140;28;20073;-72
2023/07/23 05:03:11;;;;;;;11.20;3.40;;;15.00;99.90;;;;;;5023780;28;20076;-74
2023/07/23 05:05:37;;;;;;;7.82;4.50;;;15.00;99.90;;;;;;5011922;28;20056;-73
2023/07/23 05:08:03;;;;;;;9.88;3.88;;;15.00;99.90;;;;;;5031878;28;20037;-73
2023/07/23 05:10:29;;;;;;;11.82;4.50;;;15.10;99.90;;;;;;5043299;28;20552;-73
2023/07/23 05:12:55;;;;;;;9.45;4.20;;;15.00;99.90;;;;;;5044441;28;20550;-73
2023/07/23 05:15:20;;;;;;;10.10;3.70;;;15.00;99.90;;;;;;5043941;28;20041;-72
2023/07/23 05:17:46;;;;;;;7.10;3.50;;;15.00;99.90;;;;;;5042485;28;20144;-73
2023/07/23 05:20:11;;;;;;;6.50;3.10;;;15.00;99.90;;;;;;5026564;28;20048;-73
2023/07/23 05:22:39;;;;;;;8.95;4.00;;;15.00;99.90;;;;;;5033717;28;20040;-73
2023/07/23 05:25:05;;;;;;;6.68;4.13;;;15.00;99.90;;;;;;5024142;28;20056;-72
2023/07/23 05:27:31;;;;;;;7.40;4.28;;;15.00;99.90;;;;;;5029100;28;20045;-72
2023/07/23 05:29:56;;;;;;;8.45;4.32;;;15.00;99.90;;;;;;5042461;28;20056;-73
2023/07/23 05:32:22;;;;;;;6.50;3.85;;;15.00;99.90;;;;;;5044002;28;20048;-73
2023/07/23 05:34:47;;;;;;;9.50;5.72;;;15.00;99.90;;;;;;5025628;28;20045;-73
2023/07/23 05:37:13;;;;;;;12.75;4.10;;;15.00;99.90;;;;;;5042178;28;20399;-72
2023/07/23 05:39:39;;;;;;;7.40;3.35;;;15.00;99.90;;;;;;5036373;28;20395;-73
2023/07/23 05:42:05;;;;;;;6.88;3.83;;;15.00;99.90;;;;;;5022575;28;20049;-73
2023/07/23 05:44:31;;;;;;;7.82;4.03;;;15.00;99.90;;;;;;5022714;28;20033;-74
2023/07/23 05:46:57;;;;;;;10.18;4.40;;;15.00;99.90;;;;;;5031762;28;20488;-73
2023/07/23 05:49:24;;;;;;;8.52;3.83;;;15.00;99.90;;;;;;5023204;28;20049;-72
2023/07/23 05:51:50;;;;;;;9.35;4.80;;;15.00;99.90;;;;;;5037012;28;20565;-72
2023/07/23 05:54:16;;;;;;;8.82;4.68;;;15.00;99.90;;;;;;5041885;28;20084;-72
2023/07/23 05:56:41;;;;;;;8.73;4.00;;;15.00;99.90;;;;;;5042431;28;20161;-73
2023/07/23 05:59:07;;;;;;;9.32;3.63;;;15.00;99.90;;;;;;5042135;28;20131;-73
2023/07/23 06:01:32;;;;;;;8.50;4.07;;;15.00;99.90;;;;;;5023232;28;20056;-73
2023/07/23 06:03:58;;;;;;;5.85;3.55;;;15.00;99.90;;;;;;5022108;28;20045;-73
2023/07/23 06:06:24;;;;;;;12.13;4.95;;;15.00;99.90;;;;;;5023573;28;20046;-73
2023/07/23 06:08:49;;;;;;;7.60;4.97;;;15.00;99.90;;;;;;5025200;28;20106;-72
2023/07/23 06:11:15;;;;;;;8.70;3.67;;;15.00;99.90;;;;;;5035752;28;20053;-73
2023/07/23 06:13:41;;;;;;;8.13;4.88;;;15.00;99.90;;;;;;5023607;28;20429;-73
2023/07/23 06:16:07;;;;;;;6.68;3.25;;;15.10;99.90;;;;;;5017445;28;20106;-72
2023/07/23 06:18:35;;;;;;;7.57;4.47;;;15.10;99.90;;;;;;5029317;28;20042;-73
2023/07/23 06:21:04;;;;;;;9.75;4.30;;;15.10;99.90;;;;;;5005231;28;20396;-73
2023/07/23 06:23:31;;;;;;;8.40;4.10;;;15.10;99.90;;;;;;5029590;28;20102;-73
2023/07/23 06:25:57;;;;;;;8.82;4.28;;;15.10;99.90;;;;;;5043591;28;20045;-72
2023/07/23 06:28:23;;;;;;;8.52;4.75;;;15.10;99.90;;;;;;5041555;28;20443;-73
2023/07/23 06:30:53;;;;;;;14.90;5.63;;;15.10;99.90;;;;;;5042887;28;20773;-73
2023/07/23 06:33:19;;;;;;;12.55;4.72;;;15.10;99.90;;;;;;5040669;28;20411;-74
2023/07/23 06:35:45;;;;;;;12.20;4.85;;;15.10;99.90;;;;;;5041897;28;20049;-73
2023/07/23 06:38:11;;;;;;;7.15;4.13;;;15.10;99.90;;;;;;5040780;28;20056;-73
2023/07/23 06:40:37;;;;;;;8.48;4.68;;;15.10;99.90;;;;;;5039094;28;20041;-73
2023/07/23 06:43:02;;;;;;;10.82;5.00;;;15.10;99.90;;;;;;5016740;28;20045;-74
2023/07/23 06:45:28;;;;;;;11.55;4.63;;;15.10;99.90;;;;;;5041673;28;20506;-73
2023/07/23 06:47:55;;;;;;;10.43;4.47;;;15.20;99.90;;;;;;5038341;28;20219;-73
2023/07/23 06:50:20;;;;;;;7.60;4.50;;;15.20;99.90;;;;;;5040451;28;20519;-74
2023/07/23 06:52:47;;;;;;;9.10;4.95;;;15.20;99.90;;;;;;5038268;28;20048;-73
2023/07/23 06:55:12;;;;;;;11.30;4.60;;;15.20;99.90;;;;;;5030632;28;20041;-73
2023/07/23 06:57:39;;;;;;;9.57;5.13;;;15.20;99.90;;;;;;5037641;28;20075;-71
2023/07/23 07:00:07;;;;;;;8.20;4.70;;;15.30;99.90;;;;;;5040288;28;20052;-74
2023/07/23 07:02:33;;;;;;;7.75;4.82;;;15.30;99.90;;;;;;5034404;28;20043;-74
2023/07/23 07:04:58;;;;;;;9.40;5.00;;;15.30;99.90;;;;;;5041570;28;20048;-74
2023/07/23 07:07:24;;;;;;;9.98;5.45;;;15.30;99.90;;;;;;5040600;28;20527;-74
2023/07/23 07:09:49;;;;;;;11.55;4.82;;;15.30;99.90;;;;;;5043159;28;20041;-74
2023/07/23 07:12:15;;;;;;;8.07;4.60;;;15.40;99.90;;;;;;5029061;28;20128;-73
2023/07/23 07:14:41;;;;;;;10.00;4.63;;;15.40;99.90;;;;;;5023005;28;20093;-74
2023/07/23 07:17:06;;;;;;;15.82;5.30;;;15.40;99.90;;;;;;5025703;28;20080;-73
2023/07/23 07:19:32;;;;;;;9.48;5.00;;;15.40;99.90;;;;;;5022231;28;20049;-74
2023/07/23 07:21:57;;;;;;;11.07;4.78;;;15.50;99.90;;;;;;5021922;28;20056;-73
2023/07/23 07:24:23;;;;;;;12.45;4.68;;;15.50;99.90;;;;;;5022420;28;20075;-73
2023/07/23 07:26:49;;;;;;;13.18;4.85;;;15.50;99.90;;;;;;5023393;28;20428;-73
2023/07/23 07:29:14;;;;;;;15.43;5.30;;;15.60;99.90;;;;;;5042583;28;20414;-73
2023/07/23 07:31:40;;;;;;;17.55;5.05;;;15.60;99.90;;;;;;5020329;28;20493;-74
2023/07/23 07:34:06;;;;;;;13.13;5.75;;;15.60;99.90;;;;;;5040459;28;20052;-74
2023/07/23 07:36:31;;;;;;;16.55;5.57;;;15.60;99.90;;;;;;5035431;28;20044;-73
2023/07/23 07:38:57;;;;;;;14.02;6.22;;;15.70;99.90;;;;;;5031811;28;20368;-74
2023/07/23 07:41:22;;;;;;;21.20;6.15;;;15.60;99.90;;;;;;5028300;28;20068;-74
2023/07/23 07:43:48;;;;;;;19.63;6.93;;;15.70;99.90;;;;;;5032206;28;20028;-73
2023/07/23 07:46:15;;;;;;;19.83;7.40;;;15.70;99.90;;;;;;5037365;28;20064;-74
2023/07/23 07:48:42;;;;;;;16.55;6.50;;;15.70;99.90;;;;;;5032613;28;20083;-74
2023/07/23 07:51:08;;;;;;;15.18;6.43;;;15.80;99.90;;;;;;5031344;28;20443;-74
2023/07/23 07:53:35;;;;;;;13.35;6.07;;;15.70;99.90;;;;;;5032649;28;20045;-74
2023/07/23 07:56:01;;;;;;;13.70;6.93;;;15.70;99.90;;;;;;5025785;28;20128;-75
2023/07/23 07:58:27;;;;;;;14.70;6.65;;;15.80;99.90;;;;;;5039806;28;20052;-74
2023/07/23 08:00:57;;;;;;;18.15;7.05;;;15.80;99.90;;;;;;5044158;28;20041;-74
2023/07/23 08:03:26;;;;;;;17.38;8.40;;;15.80;99.90;;;;;;5036364;28;20045;-74
2023/07/23 08:05:52;;;;;;;17.48;6.65;;;15.80;99.90;;;;;;5045861;28;20044;-73
2023/07/23 08:08:23;;;;;;;14.38;7.70;;;15.80;99.90;;;;;;5042818;28;20041;-74
2023/07/23 08:10:49;;;;;;;18.52;8.35;;;15.80;99.90;;;;;;5044449;28;20056;-74
2023/07/23 08:13:15;;;;;;;16.80;8.30;;;15.90;99.90;;;;;;5043818;28;20045;-74
2023/07/23 08:15:41;;;;;;;17.95;9.20;;;15.90;99.90;;;;;;5027535;28;20052;-75
2023/07/23 08:18:07;;;;;;;15.02;8.43;;;15.90;99.90;;;;;;5043274;28;20403;-74
2023/07/23 08:20:34;;;;;;;16.17;9.20;;;15.90;99.90;;;;;;5026180;28;20037;-75
2023/07/23 08:23:01;;;;;;;18.92;8.23;;;15.90;99.90;;;;;;5034592;28;20112;-75
2023/07/23 08:25:29;;;;;;;14.20;8.27;;;16.00;99.90;;;;;;5026129;28;20044;-75
2023/07/23 08:28:00;;;;;;;15.25;7.50;;;16.00;99.90;;;;;;5044529;28;20120;-74
2023/07/23 08:30:28;;;;;;;15.65;8.82;;;16.00;99.90;;;;;;5043008;28;20352;-76
2023/07/23 08:32:55;;;;;;;12.30;6.80;;;16.00;99.90;;;;;;5042906;28;20274;-73
2023/07/23 08:35:24;;;;;;;12.52;7.45;;;16.00;99.90;;;;;;5043892;28;20044;-74
2023/07/23 08:37:51;;;;;;;13.50;7.68;;;16.10;99.90;;;;;;5017554;28;20391;-73
2023/07/23 08:40:17;;;;;;;13.32;7.15;;;16.10;99.90;;;;;;5036217;28;20041;-74
2023/07/23 08:42:55;;;;;;;14.18;7.63;;;16.10;99.90;;;;;;5025573;28;20053;-73
2023/07/23 08:45:48;;;;;;;12.52;7.43;;;16.10;99.90;;;;;;5024624;28;20053;-71
2023/07/23 08:48:16;;;;;;;14.98;8.15;;;16.10;99.90;;;;;;5042431;28;20049;-71
2023/07/23 08:50:47;;;;;;;18.42;9.30;;;16.10;99.90;;;;;;5043153;28;20041;-71
2023/07/23 08:53:14;;;;;;;19.40;9.38;;;16.10;99.90;;;;;;5043304;28;20128;-71
2023/07/23 08:55:45;;;;;;;15.93;9.07;;;16.10;99.90;;;;;;5043184;28;20099;-71
2023/07/23 08:58:16;;;;;;;15.88;9.25;;;16.10;99.90;;;;;;5031604;28;20125;-72
2023/07/23 09:00:43;;;;;;;13.73;8.88;;;16.10;99.90;;;;;;5036656;28;20048;-71
2023/07/23 09:03:10;;;;;;;14.73;8.52;;;16.10;99.90;;;;;;5028975;28;20120;-70
2023/07/23 09:05:37;;;;;;;15.63;8.23;;;16.10;99.90;;;;;;5030397;28;20080;-71
2023/07/23 09:08:03;;;;;;;14.38;8.50;;;16.10;99.90;;;;;;5040957;28;20072;-70
2023/07/23 09:10:28;;;;;;;16.50;9.20;;;16.10;99.90;;;;;;5029780;28;20625;-70
2023/07/23 09:12:54;;;;;;;16.65;9.90;;;16.10;99.90;;;;;;5024624;28;20095;-70
2023/07/23 09:15:19;;;;;;;16.48;9.30;;;16.10;99.90;;;;;;5024033;28;20059;-69
2023/07/23 09:17:49;;;;;;;16.65;9.02;;;16.10;99.90;;;;;;5042201;28;20099;-70
2023/07/23 09:20:18;;;;;;;15.82;8.75;;;16.20;99.90;;;;;;5037936;28;20041;-70
2023/07/23 09:22:44;;;;;;;14.70;9.35;;;16.20;99.90;;;;;;5026471;28;20447;-72
2023/07/23 09:25:09;;;;;;;19.05;9.52;;;16.20;99.90;;;;;;5033701;28;20048;-71
2023/07/23 09:27:44;;;;;;;15.45;8.45;;;16.20;99.90;;;;;;5024528;28;20553;-70
2023/07/23 09:30:18;;;;;;;18.38;9.43;;;16.20;99.90;;;;;;5023654;28;20037;-72
2023/07/23 09:32:44;;;;;;;19.52;9.68;;;16.20;99.90;;;;;;5038556;28;20071;-71
2023/07/23 09:35:10;;;;;;;18.50;8.80;;;16.30;99.90;;;;;;5022784;28;20056;-71
2023/07/23 09:37:36;;;;;;;18.73;9.00;;;16.30;99.90;;;;;;5033081;28;20399;-72
2023/07/23 09:40:01;;;;;;;15.57;8.50;;;16.30;99.90;;;;;;5043062;28;20562;-71
2023/07/23 09:42:27;;;;;;;16.40;8.90;;;16.30;99.90;;;;;;5031953;28;20053;-71
2023/07/23 09:44:53;;;;;;;14.30;8.15;;;16.30;99.90;;;;;;5042675;28;20044;-71
2023/07/23 09:47:25;;;;;;;14.38;8.40;;;16.30;99.90;;;;;;5035859;28;20057;-72
2023/07/23 09:49:53;;;;;;;19.10;8.52;;;16.30;99.90;;;;;;5023785;28;20124;-72
2023/07/23 09:52:22;;;;;;;15.68;8.23;;;16.30;99.90;;;;;;5018335;28;20041;-72
2023/07/23 09:54:48;;;;;;;15.52;9.18;;;16.30;99.90;;;;;;5041993;28;20087;-72
2023/07/23 09:57:15;;;;;;;18.63;9.32;;;16.40;99.90;;;;;;5042454;28;20084;-72
2023/07/23 09:59:42;;;;;;;19.42;9.88;;;16.40;99.90;;;;;;5042421;28;20037;-72
2023/07/23 10:02:09;;;;;;;17.67;9.07;;;16.40;99.90;;;;;;5032577;28;20049;-72
2023/07/23 10:04:37;;;;;;;16.77;8.90;;;16.40;99.90;;;;;;5023290;28;20058;-71
2023/07/23 10:07:04;;;;;;;17.50;10.00;;;16.40;99.90;;;;;;5022853;28;20053;-72
2023/07/23 10:09:30;;;;;;;20.23;9.00;;;16.50;99.90;;;;;;5031804;28;20126;-73
2023/07/23 10:11:56;;;;;;;24.05;9.80;;;16.50;99.90;;;;;;5018696;28;20049;-72
2023/07/23 10:14:22;;;;;;;19.05;11.05;;;16.50;99.90;;;;;;5026186;28;20136;-72
2023/07/23 10:16:49;;;;;;;19.15;10.13;;;16.50;99.90;;;;;;5029943;28;20112;-73
2023/07/23 10:19:15;;;;;;;17.48;10.13;;;16.50;99.90;;;;;;5022003;28;20090;-72
2023/07/23 10:21:48;;;;;;;16.27;8.68;;;16.60;99.90;;;;;;5031617;28;20033;-72
2023/07/23 10:24:14;;;;;;;17.77;9.30;;;16.60;99.90;;;;;;5041959;28;20360;-71
2023/07/23 10:26:46;;;;;;;13.98;8.45;;;16.60;99.90;;;;;;5038728;28;20045;-72
2023/07/23 10:29:21;;;;;;;16.15;9.82;;;16.70;99.90;;;;;;5043004;28;20053;-72
2023/07/23 10:31:47;;;;;;;19.95;10.90;;;16.70;99.90;;;;;;5041916;28;20044;-72
2023/07/23 10:34:21;;;;;;;15.15;8.98;;;16.70;99.90;;;;;;5041867;28;20088;-72
2023/07/23 10:37:13;;;;;;;17.63;9.70;;;16.80;99.90;;;;;;5031852;28;20080;-72
2023/07/23 10:39:41;;;;;;;16.85;8.85;;;16.80;99.90;;;;;;5023038;28;20452;-72
2023/07/23 10:42:07;;;;;;;13.90;7.55;;;16.80;99.90;;;;;;5005486;28;20611;-72
2023/07/23 10:44:32;;;;;;;16.80;8.60;;;16.80;99.90;;;;;;5023326;28;20052;-72
2023/07/23 10:46:59;;;;;;;13.45;8.40;;;16.80;99.90;;;;;;5022353;28;20049;-72
2023/07/23 10:49:29;;;;;;;15.43;8.40;;;16.90;99.90;;;;;;5022247;28;20088;-73
2023/07/23 10:52:17;;;;;;;20.25;9.40;;;16.90;99.90;;;;;;5022561;28;20045;-74
2023/07/23 10:54:43;;;;;;;14.50;7.72;;;16.90;99.90;;;;;;5041666;28;20071;-72
2023/07/23 10:57:22;;;;;;;13.20;7.97;;;16.90;99.90;;;;;;5039956;28;20101;-73
2023/07/23 10:59:53;;;;;;;20.83;9.43;;;16.90;99.90;;;;;;5030194;28;20468;-72
2023/07/23 11:02:25;;;;;;;17.95;9.13;;;16.90;99.90;;;;;;5032349;28;20446;-72
2023/07/23 11:04:50;;;;;;;18.70;8.27;;;16.90;99.90;;;;;;5037317;28;20132;-73
2023/07/23 11:07:26;;;;;;;18.45;9.48;;;17.00;99.90;;;;;;5040691;28;20127;-73
2023/07/23 11:09:54;;;;;;;13.10;7.95;;;16.90;99.90;;;;;;5032811;28;20068;-73
2023/07/23 11:12:23;;;;;;;15.73;9.02;;;16.90;99.90;;;;;;5040755;28;20499;-73
2023/07/23 11:14:50;;;;;;;14.50;8.02;;;17.00;99.90;;;;;;5040687;28;20052;-72
2023/07/23 11:17:16;;;;;;;15.27;7.93;;;16.90;99.90;;;;;;5025073;28;20532;-72
2023/07/23 11:19:45;;;;;;;23.98;9.63;;;16.90;99.90;;;;;;5006619;28;20046;-72
2023/07/23 11:22:13;;;;;;;17.35;7.38;;;16.90;99.90;;;;;;5037756;28;20041;-73
2023/07/23 11:24:40;;;;;;;14.65;8.07;;;17.00;99.90;;;;;;5024064;28;20048;-73
2023/07/23 11:27:05;;;;;;;12.75;7.60;;;17.00;99.90;;;;;;5025094;28;20041;-72
2023/07/23 11:29:31;;;;;;;14.75;7.93;;;16.90;99.90;;;;;;5034084;28;20472;-72
2023/07/23 11:31:59;;;;;;;17.52;9.27;;;16.90;99.90;;;;;;5032986;28;20522;-72
2023/07/23 11:34:25;;;;;;;16.08;8.35;;;16.90;99.90;;;;;;5026759;28;20091;-73
2023/07/23 11:36:53;;;;;;;15.45;8.20;;;16.90;99.90;;;;;;5037548;28;20029;-73
2023/07/23 11:39:20;;;;;;;15.85;8.35;;;16.90;99.90;;;;;;5049989;28;20660;-72
2023/07/23 11:41:46;;;;;;;16.08;9.02;;;16.90;99.90;;;;;;5046419;28;20041;-73
2023/07/23 11:44:11;;;;;;;18.33;8.07;;;16.90;99.90;;;;;;5031948;28;20102;-72
2023/07/23 11:46:39;;;;;;;13.25;7.53;;;17.00;99.90;;;;;;5044238;28;20053;-74
2023/07/23 11:49:08;;;;;;;15.90;8.85;;;17.00;99.90;;;;;;5044246;28;20124;-73
2023/07/23 11:51:34;;;;;;;16.73;8.88;;;17.00;99.90;;;;;;5033485;28;20049;-73
2023/07/23 11:54:07;;;;;;;16.35;7.53;;;17.10;99.90;;;;;;5038470;28;20038;-74
2023/07/23 11:56:41;;;;;;;15.77;8.40;;;17.10;99.90;;;;;;5037742;28;20041;-73
2023/07/23 11:59:08;;;;;;;17.92;8.73;;;17.10;99.90;;;;;;5009880;28;20140;-73
2023/07/23 12:01:36;;;;;;;17.30;8.60;;;17.10;99.90;;;;;;5037429;28;20041;-74
2023/07/23 12:04:03;;;;;;;15.30;7.93;;;17.10;99.90;;;;;;5032983;28;20095;-73
2023/07/23 12:06:31;;;;;;;14.38;8.40;;;17.10;99.90;;;;;;5039465;28;20669;-75
2023/07/23 12:08:57;;;;;;;14.77;9.02;;;17.20;99.90;;;;;;5044379;28;20059;-73
2023/07/23 12:11:25;;;;;;;13.35;7.15;;;17.20;99.90;;;;;;5045315;28;20100;-73
2023/07/23 12:13:53;;;;;;;11.80;7.38;;;17.20;99.90;;;;;;5044609;28;20045;-72
2023/07/23 12:16:46;;;;;;;13.50;6.88;;;17.20;99.90;;;;;;5045166;28;20689;-72
2023/07/23 12:19:19;;;;;;;15.15;8.18;;;17.20;99.90;;;;;;5040920;28;20045;-72
2023/07/23 12:21:46;;;;;;;15.30;8.00;;;17.20;99.90;;;;;;5042593;28;20049;-72
2023/07/23 12:24:22;;;;;;;15.48;7.05;;;17.30;99.90;;;;;;5032261;28;20496;-72
2023/07/23 12:26:56;;;;;;;13.93;6.82;;;17.30;99.90;;;;;;5034510;28;20053;-72
2023/07/23 12:29:23;;;;;;;13.60;7.78;;;17.40;99.90;;;;;;5030351;28;20048;-72
2023/07/23 12:32:11;;;;;;;12.27;8.15;;;17.50;99.90;;;;;;5042083;28;20049;-72
2023/07/23 12:34:39;;;;;;;13.00;7.85;;;17.60;99.90;;;;;;5029290;28;20057;-72
2023/07/23 12:37:05;;;;;;;12.63;6.85;;;17.70;99.90;;;;;;5022979;28;20053;-73
2023/07/23 12:39:30;;;;;;;14.35;7.68;;;17.80;99.90;;;;;;5024955;28;20033;-73